Hither Green, United Kingdom
Current Conditions -  °F | °C
As of 3:50 AM on Wednesday 28 Jan 2015 (Local Time) from EGLC Reporting Station
Overcast Overcast  
Wind Chill: 37°   Ceiling: 1600
Heat Index: 45°   Visibility: 6mi
Dew Point: 39°   Wind: 16mph
Humidity: 81%   Direction: 230°SW
Pressure: 29.91"   Gusts: NA
Location:  51.46°N, 0°W
Report Text: EGLC 280350Z AUTO 23014KT 9999 OVC016/// 07/04 Q1013
Loading
Personal Weather Stations






























Interactive Weather Map New forecast layout! Learn more

10-Day Weather Forecast

Advertisements
Track Severe Weather on mobile